sensor_id;sensor_type;location;lat;lon;timestamp;pressure;altitude;pressure_sealevel;temperature;humidity
63819;BME280;49970;54.976;73.248;2023-04-26T00:01:33;100885.50;;;10.67;54.86
63819;BME280;49970;54.976;73.248;2023-04-26T00:04:00;100893.22;;;10.70;55.02
63819;BME280;49970;54.976;73.248;2023-04-26T00:06:27;100887.19;;;10.68;54.71
63819;BME280;49970;54.976;73.248;2023-04-26T00:08:53;100894.00;;;10.72;55.07
63819;BME280;49970;54.976;73.248;2023-04-26T00:11:20;100884.25;;;10.72;55.86
63819;BME280;49970;54.976;73.248;2023-04-26T00:13:46;100894.75;;;10.74;55.21
63819;BME280;49970;54.976;73.248;2023-04-26T00:16:13;100886.91;;;10.72;55.46
63819;BME280;49970;54.976;73.248;2023-04-26T00:18:39;100893.34;;;10.68;55.65
63819;BME280;49970;54.976;73.248;2023-04-26T00:21:06;100898.81;;;10.65;55.89
63819;BME280;49970;54.976;73.248;2023-04-26T00:23:32;100890.78;;;10.67;56.55
63819;BME280;49970;54.976;73.248;2023-04-26T00:25:58;100898.06;;;10.63;56.51
63819;BME280;49970;54.976;73.248;2023-04-26T00:28:24;100902.53;;;10.63;56.52
63819;BME280;49970;54.976;73.248;2023-04-26T00:30:51;100900.72;;;10.63;56.89
63819;BME280;49970;54.976;73.248;2023-04-26T00:33:27;100897.97;;;10.65;56.82
63819;BME280;49970;54.976;73.248;2023-04-26T00:35:54;100891.16;;;10.61;56.47
63819;BME280;49970;54.976;73.248;2023-04-26T00:38:20;100899.88;;;10.63;56.49
63819;BME280;49970;54.976;73.248;2023-04-26T00:40:46;100899.97;;;10.61;56.47
63819;BME280;49970;54.976;73.248;2023-04-26T00:43:12;100891.09;;;10.62;57.22
63819;BME280;49970;54.976;73.248;2023-04-26T00:45:39;100890.97;;;10.64;57.54
63819;BME280;49970;54.976;73.248;2023-04-26T00:48:05;100896.00;;;10.68;56.80
63819;BME280;49970;54.976;73.248;2023-04-26T00:50:31;100895.63;;;10.75;57.07
63819;BME280;49970;54.976;73.248;2023-04-26T00:52:58;100899.78;;;10.79;57.45
63819;BME280;49970;54.976;73.248;2023-04-26T00:55:30;100902.22;;;10.82;56.89
63819;BME280;49970;54.976;73.248;2023-04-26T00:57:56;100902.88;;;10.85;56.38
63819;BME280;49970;54.976;73.248;2023-04-26T01:00:28;100899.94;;;10.90;55.81
63819;BME280;49970;54.976;73.248;2023-04-26T01:02:54;100899.56;;;10.96;55.87
63819;BME280;49970;54.976;73.248;2023-04-26T01:05:21;100904.38;;;11.04;55.27
63819;BME280;49970;54.976;73.248;2023-04-26T01:07:47;100903.31;;;11.20;54.71
63819;BME280;49970;54.976;73.248;2023-04-26T01:10:13;100898.78;;;11.50;54.28
63819;BME280;49970;54.976;73.248;2023-04-26T01:12:40;100908.97;;;11.83;54.19
63819;BME280;49970;54.976;73.248;2023-04-26T01:15:18;100902.53;;;12.00;53.72
63819;BME280;49970;54.976;73.248;2023-04-26T01:17:55;100912.53;;;12.09;52.92
63819;BME280;49970;54.976;73.248;2023-04-26T01:20:21;100914.69;;;12.16;52.84
63819;BME280;49970;54.976;73.248;2023-04-26T01:22:57;100917.13;;;12.45;52.31
63819;BME280;49970;54.976;73.248;2023-04-26T01:25:24;100912.53;;;12.85;51.71
63819;BME280;49970;54.976;73.248;2023-04-26T01:27:50;100919.13;;;13.29;51.05
63819;BME280;49970;54.976;73.248;2023-04-26T01:30:16;100922.16;;;13.73;50.91
63819;BME280;49970;54.976;73.248;2023-04-26T01:32:42;100923.41;;;14.15;49.82
63819;BME280;49970;54.976;73.248;2023-04-26T01:35:09;100925.72;;;14.55;48.98
63819;BME280;49970;54.976;73.248;2023-04-26T01:37:35;100929.56;;;14.95;48.30
63819;BME280;49970;54.976;73.248;2023-04-26T01:40:02;100929.91;;;15.36;47.67
63819;BME280;49970;54.976;73.248;2023-04-26T01:42:31;100930.28;;;15.75;47.01
63819;BME280;49970;54.976;73.248;2023-04-26T01:45:09;100934.84;;;16.16;46.12
63819;BME280;49970;54.976;73.248;2023-04-26T01:48:14;100919.56;;;16.49;45.99
63819;BME280;49970;54.976;73.248;2023-04-26T01:50:40;100941.06;;;16.89;45.53
63819;BME280;49970;54.976;73.248;2023-04-26T01:53:17;100943.28;;;17.24;44.74
63819;BME280;49970;54.976;73.248;2023-04-26T01:55:43;100945.88;;;17.55;43.95
63819;BME280;49970;54.976;73.248;2023-04-26T01:58:09;100945.53;;;17.79;43.38
63819;BME280;49970;54.976;73.248;2023-04-26T02:00:36;100959.78;;;17.99;42.83
63819;BME280;49970;54.976;73.248;2023-04-26T02:03:03;100961.75;;;18.16;42.58
63819;BME280;49970;54.976;73.248;2023-04-26T02:05:39;100954.38;;;18.37;42.44
63819;BME280;49970;54.976;73.248;2023-04-26T02:08:09;100951.09;;;18.63;42.10
63819;BME280;49970;54.976;73.248;2023-04-26T02:10:36;100959.69;;;18.66;41.95
63819;BME280;49970;54.976;73.248;2023-04-26T02:13:02;100963.09;;;18.59;41.93
63819;BME280;49970;54.976;73.248;2023-04-26T02:15:28;100965.53;;;18.42;42.10
63819;BME280;49970;54.976;73.248;2023-04-26T02:18:05;100959.34;;;18.13;42.33
63819;BME280;49970;54.976;73.248;2023-04-26T02:20:32;100962.19;;;17.82;42.18
63819;BME280;49970;54.976;73.248;2023-04-26T02:23:09;100955.91;;;17.53;42.99
63819;BME280;49970;54.976;73.248;2023-04-26T02:25:35;100962.81;;;17.55;43.05
63819;BME280;49970;54.976;73.248;2023-04-26T02:28:07;100971.56;;;17.48;43.40
63819;BME280;49970;54.976;73.248;2023-04-26T02:30:39;100968.56;;;17.31;43.69
63819;BME280;49970;54.976;73.248;2023-04-26T02:33:05;100970.91;;;17.25;43.74
63819;BME280;49970;54.976;73.248;2023-04-26T02:35:32;100969.75;;;17.17;43.94
63819;BME280;49970;54.976;73.248;2023-04-26T02:37:58;100975.00;;;17.19;44.30
63819;BME280;49970;54.976;73.248;2023-04-26T02:40:24;100966.84;;;17.30;44.30
63819;BME280;49970;54.976;73.248;2023-04-26T02:42:55;100970.41;;;17.40;43.99
63819;BME280;49970;54.976;73.248;2023-04-26T02:45:22;100969.00;;;17.46;43.97
63819;BME280;49970;54.976;73.248;2023-04-26T02:47:49;100971.25;;;17.51;43.69
63819;BME280;49970;54.976;73.248;2023-04-26T02:50:26;100983.22;;;17.37;43.69
63819;BME280;49970;54.976;73.248;2023-04-26T02:52:52;100983.06;;;17.38;44.07
63819;BME280;49970;54.976;73.248;2023-04-26T02:55:18;100989.81;;;17.33;44.09
63819;BME280;49970;54.976;73.248;2023-04-26T02:57:45;100984.97;;;17.17;44.29
63819;BME280;49970;54.976;73.248;2023-04-26T03:00:12;100971.69;;;17.06;44.28
63819;BME280;49970;54.976;73.248;2023-04-26T03:02:46;100979.31;;;17.10;44.55
63819;BME280;49970;54.976;73.248;2023-04-26T03:05:13;100977.94;;;17.16;44.36
63819;BME280;49970;54.976;73.248;2023-04-26T03:07:39;100984.03;;;17.28;44.19
63819;BME280;49970;54.976;73.248;2023-04-26T03:10:06;100985.28;;;17.24;44.39
63819;BME280;49970;54.976;73.248;2023-04-26T03:12:41;100976.94;;;17.17;44.06
63819;BME280;49970;54.976;73.248;2023-04-26T03:15:07;100985.13;;;17.25;44.53
63819;BME280;49970;54.976;73.248;2023-04-26T03:17:35;100991.81;;;17.40;43.77
63819;BME280;49970;54.976;73.248;2023-04-26T03:20:02;100986.91;;;17.46;43.24
63819;BME280;49970;54.976;73.248;2023-04-26T03:22:31;100991.25;;;17.47;42.88
63819;BME280;49970;54.976;73.248;2023-04-26T03:24:57;100983.13;;;17.48;42.88
63819;BME280;49970;54.976;73.248;2023-04-26T03:27:26;100979.59;;;17.57;43.09
63819;BME280;49970;54.976;73.248;2023-04-26T03:29:52;100987.94;;;17.74;43.00
63819;BME280;49970;54.976;73.248;2023-04-26T03:32:19;100983.63;;;17.82;43.14
63819;BME280;49970;54.976;73.248;2023-04-26T03:34:45;100989.56;;;17.86;42.78
63819;BME280;49970;54.976;73.248;2023-04-26T03:37:13;100984.63;;;17.91;43.13
63819;BME280;49970;54.976;73.248;2023-04-26T03:39:42;100988.84;;;18.13;43.20
63819;BME280;49970;54.976;73.248;2023-04-26T03:42:20;100996.03;;;18.22;42.81
63819;BME280;49970;54.976;73.248;2023-04-26T03:44:46;101000.69;;;18.30;42.59
63819;BME280;49970;54.976;73.248;2023-04-26T03:47:12;100999.56;;;18.42;42.21
63819;BME280;49970;54.976;73.248;2023-04-26T03:49:41;101004.38;;;18.48;42.37
63819;BME280;49970;54.976;73.248;2023-04-26T03:52:08;101004.75;;;18.63;42.07
63819;BME280;49970;54.976;73.248;2023-04-26T03:54:34;100999.25;;;18.74;41.95
63819;BME280;49970;54.976;73.248;2023-04-26T03:57:11;100999.81;;;18.78;41.89
63819;BME280;49970;54.976;73.248;2023-04-26T03:59:44;100993.03;;;18.74;41.51
63819;BME280;49970;54.976;73.248;2023-04-26T04:02:10;101003.34;;;18.78;41.74
63819;BME280;49970;54.976;73.248;2023-04-26T04:04:37;101002.03;;;18.92;41.90
63819;BME280;49970;54.976;73.248;2023-04-26T04:07:03;100999.91;;;18.96;41.47
63819;BME280;49970;54.976;73.248;2023-04-26T04:09:34;101005.94;;;19.07;41.57
63819;BME280;49970;54.976;73.248;2023-04-26T04:12:02;101004.31;;;19.24;41.33
63819;BME280;49970;54.976;73.248;2023-04-26T04:14:29;100997.50;;;19.30;41.23
63819;BME280;49970;54.976;73.248;2023-04-26T04:16:55;101006.94;;;19.34;41.32
63819;BME280;49970;54.976;73.248;2023-04-26T04:19:21;101000.94;;;19.50;41.07
63819;BME280;49970;54.976;73.248;2023-04-26T04:21:53;100994.63;;;19.59;40.61
63819;BME280;49970;54.976;73.248;2023-04-26T04:24:23;101003.53;;;19.59;40.53
63819;BME280;49970;54.976;73.248;2023-04-26T04:26:56;101001.28;;;19.64;40.55
63819;BME280;49970;54.976;73.248;2023-04-26T04:29:22;100997.84;;;19.72;40.44
63819;BME280;49970;54.976;73.248;2023-04-26T04:31:54;100999.59;;;19.81;40.14
63819;BME280;49970;54.976;73.248;2023-04-26T04:37:50;101004.94;;;20.09;39.83
63819;BME280;49970;54.976;73.248;2023-04-26T04:40:16;101004.34;;;20.15;40.13
63819;BME280;49970;54.976;73.248;2023-04-26T04:42:45;101007.78;;;20.25;40.25
63819;BME280;49970;54.976;73.248;2023-04-26T04:45:12;100998.84;;;20.43;39.86
63819;BME280;49970;54.976;73.248;2023-04-26T04:47:40;101002.47;;;20.51;39.56
63819;BME280;49970;54.976;73.248;2023-04-26T04:50:06;101009.22;;;20.55;39.71
63819;BME280;49970;54.976;73.248;2023-04-26T04:52:43;101001.50;;;20.60;39.62
63819;BME280;49970;54.976;73.248;2023-04-26T04:55:20;101004.78;;;20.72;39.77
63819;BME280;49970;54.976;73.248;2023-04-26T04:57:46;101006.94;;;20.86;39.89
63819;BME280;49970;54.976;73.248;2023-04-26T05:00:13;101001.63;;;21.03;39.31
63819;BME280;49970;54.976;73.248;2023-04-26T05:02:58;100999.34;;;21.16;39.33
63819;BME280;49970;54.976;73.248;2023-04-26T05:05:25;101012.44;;;21.37;39.46
63819;BME280;49970;54.976;73.248;2023-04-26T05:07:52;101004.72;;;21.50;38.76
63819;BME280;49970;54.976;73.248;2023-04-26T05:10:23;101002.03;;;21.50;38.89
63819;BME280;49970;54.976;73.248;2023-04-26T05:12:49;100997.00;;;21.55;39.08
63819;BME280;49970;54.976;73.248;2023-04-26T05:15:17;100999.91;;;21.70;38.73
63819;BME280;49970;54.976;73.248;2023-04-26T05:17:43;100999.06;;;21.86;38.53
63819;BME280;49970;54.976;73.248;2023-04-26T05:20:20;100997.91;;;21.88;38.13
63819;BME280;49970;54.976;73.248;2023-04-26T05:22:46;100992.19;;;21.92;38.01
63819;BME280;49970;54.976;73.248;2023-04-26T05:25:22;100990.16;;;21.94;37.97
63819;BME280;49970;54.976;73.248;2023-04-26T05:27:55;100999.47;;;21.99;37.95
63819;BME280;49970;54.976;73.248;2023-04-26T05:30:45;100999.63;;;22.06;37.28
63819;BME280;49970;54.976;73.248;2023-04-26T05:33:27;101007.06;;;22.12;37.03
63819;BME280;49970;54.976;73.248;2023-04-26T05:35:55;100998.59;;;22.07;36.93
63819;BME280;49970;54.976;73.248;2023-04-26T05:38:24;100997.25;;;22.11;37.20
63819;BME280;49970;54.976;73.248;2023-04-26T05:40:50;101001.19;;;22.17;37.19
63819;BME280;49970;54.976;73.248;2023-04-26T05:43:17;100996.97;;;22.22;36.94
63819;BME280;49970;54.976;73.248;2023-04-26T05:45:53;100994.28;;;22.22;36.88
63819;BME280;49970;54.976;73.248;2023-04-26T05:48:20;101000.00;;;22.44;37.02
63819;BME280;49970;54.976;73.248;2023-04-26T05:50:48;100982.78;;;22.53;36.94
63819;BME280;49970;54.976;73.248;2023-04-26T05:53:24;100999.31;;;22.66;36.57
63819;BME280;49970;54.976;73.248;2023-04-26T05:55:51;100993.03;;;22.74;36.07
63819;BME280;49970;54.976;73.248;2023-04-26T05:58:17;100995.94;;;22.72;35.69
63819;BME280;49970;54.976;73.248;2023-04-26T06:00:45;100990.03;;;22.69;36.03
63819;BME280;49970;54.976;73.248;2023-04-26T06:03:12;100984.81;;;22.67;36.19
63819;BME280;49970;54.976;73.248;2023-04-26T06:05:38;100991.53;;;22.79;36.22
63819;BME280;49970;54.976;73.248;2023-04-26T06:08:17;100987.47;;;22.83;36.05
63819;BME280;49970;54.976;73.248;2023-04-26T06:10:48;100984.41;;;22.86;35.96
63819;BME280;49970;54.976;73.248;2023-04-26T06:13:15;100991.50;;;22.87;34.86
63819;BME280;49970;54.976;73.248;2023-04-26T06:15:42;100990.19;;;22.92;34.17
63819;BME280;49970;54.976;73.248;2023-04-26T06:18:09;100991.88;;;22.93;34.18
63819;BME280;49970;54.976;73.248;2023-04-26T06:20:46;100978.16;;;22.94;33.97
63819;BME280;49970;54.976;73.248;2023-04-26T06:23:22;100984.41;;;22.95;33.95
63819;BME280;49970;54.976;73.248;2023-04-26T06:25:48;100980.88;;;22.94;34.16
63819;BME280;49970;54.976;73.248;2023-04-26T06:28:18;100980.81;;;23.10;34.32
63819;BME280;49970;54.976;73.248;2023-04-26T06:30:45;100978.06;;;23.27;34.17
63819;BME280;49970;54.976;73.248;2023-04-26T06:33:22;100979.06;;;23.34;33.38
63819;BME280;49970;54.976;73.248;2023-04-26T06:35:48;100981.56;;;23.35;32.58
63819;BME280;49970;54.976;73.248;2023-04-26T06:38:14;100971.81;;;23.26;33.23
63819;BME280;49970;54.976;73.248;2023-04-26T06:40:41;100977.22;;;23.26;33.23
63819;BME280;49970;54.976;73.248;2023-04-26T06:43:09;100978.91;;;23.27;32.65
63819;BME280;49970;54.976;73.248;2023-04-26T06:45:59;100981.59;;;23.27;33.08
63819;BME280;49970;54.976;73.248;2023-04-26T06:49:49;100971.97;;;23.33;33.07
63819;BME280;49970;54.976;73.248;2023-04-26T06:53:20;100963.63;;;23.43;32.96
63819;BME280;49970;54.976;73.248;2023-04-26T06:55:57;100966.09;;;23.52;32.54
63819;BME280;49970;54.976;73.248;2023-04-26T06:58:23;100982.13;;;23.62;32.20
63819;BME280;49970;54.976;73.248;2023-04-26T07:00:49;100979.47;;;23.54;31.48
63819;BME280;49970;54.976;73.248;2023-04-26T07:03:46;100975.97;;;23.45;31.85
63819;BME280;49970;54.976;73.248;2023-04-26T07:07:39;100982.84;;;23.48;31.84
63819;BME280;49970;54.976;73.248;2023-04-26T07:11:30;100981.22;;;23.39;32.43
63819;BME280;49970;54.976;73.248;2023-04-26T07:15:21;100971.75;;;23.43;32.09
63819;BME280;49970;54.976;73.248;2023-04-26T07:19:12;100980.31;;;23.54;32.61
63819;BME280;49970;54.976;73.248;2023-04-26T07:21:53;100977.72;;;23.61;31.96
63819;BME280;49970;54.976;73.248;2023-04-26T07:24:19;100974.00;;;23.62;31.63
63819;BME280;49970;54.976;73.248;2023-04-26T07:26:46;100969.59;;;23.61;31.86
63819;BME280;49970;54.976;73.248;2023-04-26T07:29:12;100968.25;;;23.65;31.99
63819;BME280;49970;54.976;73.248;2023-04-26T07:31:39;100964.19;;;23.69;31.76
63819;BME280;49970;54.976;73.248;2023-04-26T07:34:05;100956.91;;;23.61;31.47
63819;BME280;49970;54.976;73.248;2023-04-26T07:36:36;100963.34;;;23.60;31.86
63819;BME280;49970;54.976;73.248;2023-04-26T07:39:02;100957.09;;;23.60;31.67
63819;BME280;49970;54.976;73.248;2023-04-26T07:41:30;100956.56;;;23.65;30.86
63819;BME280;49970;54.976;73.248;2023-04-26T07:44:07;100949.66;;;23.62;31.20
63819;BME280;49970;54.976;73.248;2023-04-26T07:46:33;100954.88;;;23.64;31.26
63819;BME280;49970;54.976;73.248;2023-04-26T07:49:19;100948.66;;;23.63;31.47
63819;BME280;49970;54.976;73.248;2023-04-26T07:53:10;100952.88;;;23.66;31.76
63819;BME280;49970;54.976;73.248;2023-04-26T07:56:30;100948.78;;;23.70;31.64
63819;BME280;49970;54.976;73.248;2023-04-26T07:58:56;100957.44;;;23.65;31.82
63819;BME280;49970;54.976;73.248;2023-04-26T08:01:22;100950.84;;;23.59;31.73
63819;BME280;49970;54.976;73.248;2023-04-26T08:03:49;100968.28;;;23.57;32.21
63819;BME280;49970;54.976;73.248;2023-04-26T08:06:19;100974.34;;;23.59;32.08
63819;BME280;49970;54.976;73.248;2023-04-26T08:08:46;100965.22;;;23.60;32.32
63819;BME280;49970;54.976;73.248;2023-04-26T08:11:15;100963.69;;;23.57;32.29
63819;BME280;49970;54.976;73.248;2023-04-26T08:13:42;100958.66;;;23.54;32.19
63819;BME280;49970;54.976;73.248;2023-04-26T08:16:13;100964.06;;;23.54;32.13
63819;BME280;49970;54.976;73.248;2023-04-26T08:18:50;100955.78;;;23.56;32.37
63819;BME280;49970;54.976;73.248;2023-04-26T08:21:16;100947.31;;;23.59;32.34
63819;BME280;49970;54.976;73.248;2023-04-26T08:23:43;100956.63;;;23.56;32.29
63819;BME280;49970;54.976;73.248;2023-04-26T08:26:09;100962.69;;;23.58;32.52
63819;BME280;49970;54.976;73.248;2023-04-26T08:28:36;100947.66;;;23.56;32.61
63819;BME280;49970;54.976;73.248;2023-04-26T08:31:03;100960.66;;;23.60;32.09
63819;BME280;49970;54.976;73.248;2023-04-26T08:33:29;100948.19;;;23.51;32.52
63819;BME280;49970;54.976;73.248;2023-04-26T08:36:00;100949.88;;;23.52;32.36
63819;BME280;49970;54.976;73.248;2023-04-26T08:38:27;100947.38;;;23.51;32.37
63819;BME280;49970;54.976;73.248;2023-04-26T08:40:54;100949.88;;;23.52;32.98
63819;BME280;49970;54.976;73.248;2023-04-26T08:43:32;100950.84;;;23.59;32.52
63819;BME280;49970;54.976;73.248;2023-04-26T08:46:01;100952.72;;;23.59;32.55
63819;BME280;49970;54.976;73.248;2023-04-26T08:48:31;100954.44;;;23.52;32.14
63819;BME280;49970;54.976;73.248;2023-04-26T08:51:00;100958.00;;;23.52;32.16
63819;BME280;49970;54.976;73.248;2023-04-26T08:53:37;100954.16;;;23.47;32.65
63819;BME280;49970;54.976;73.248;2023-04-26T08:56:04;100947.22;;;23.44;32.52
63819;BME280;49970;54.976;73.248;2023-04-26T08:58:31;100954.53;;;23.35;32.50
63819;BME280;49970;54.976;73.248;2023-04-26T09:00:57;100942.88;;;23.35;32.74
63819;BME280;49970;54.976;73.248;2023-04-26T09:03:25;100950.13;;;23.43;32.61
63819;BME280;49970;54.976;73.248;2023-04-26T09:05:52;100951.63;;;23.45;32.79
63819;BME280;49970;54.976;73.248;2023-04-26T09:08:19;100948.94;;;23.45;32.69
63819;BME280;49970;54.976;73.248;2023-04-26T09:10:56;100943.88;;;23.42;32.73
63819;BME280;49970;54.976;73.248;2023-04-26T09:13:27;100940.84;;;23.37;33.16
63819;BME280;49970;54.976;73.248;2023-04-26T09:15:54;100948.97;;;23.37;33.15
63819;BME280;49970;54.976;73.248;2023-04-26T09:18:21;100945.25;;;23.38;33.53
63819;BME280;49970;54.976;73.248;2023-04-26T09:21:07;100941.50;;;23.39;32.83
63819;BME280;49970;54.976;73.248;2023-04-26T09:23:34;100940.66;;;23.39;33.10
63819;BME280;49970;54.976;73.248;2023-04-26T09:26:19;100937.47;;;23.35;32.58
63819;BME280;49970;54.976;73.248;2023-04-26T09:28:46;100940.47;;;23.40;32.93
63819;BME280;49970;54.976;73.248;2023-04-26T09:31:36;100935.88;;;23.49;32.88
63819;BME280;49970;54.976;73.248;2023-04-26T09:34:03;100934.03;;;23.49;33.04
63819;BME280;49970;54.976;73.248;2023-04-26T09:36:29;100942.59;;;23.53;32.94
63819;BME280;49970;54.976;73.248;2023-04-26T09:38:57;100949.03;;;23.52;32.76
63819;BME280;49970;54.976;73.248;2023-04-26T09:41:23;100937.69;;;23.56;32.83
63819;BME280;49970;54.976;73.248;2023-04-26T09:43:51;100946.28;;;23.60;32.33
63819;BME280;49970;54.976;73.248;2023-04-26T09:46:24;100933.13;;;23.57;32.78
63819;BME280;49970;54.976;73.248;2023-04-26T09:49:00;100937.03;;;23.54;32.65
63819;BME280;49970;54.976;73.248;2023-04-26T09:51:27;100928.53;;;23.57;32.59
63819;BME280;49970;54.976;73.248;2023-04-26T09:53:53;100919.91;;;23.62;32.20
63819;BME280;49970;54.976;73.248;2023-04-26T09:56:20;100928.88;;;23.63;32.48
63819;BME280;49970;54.976;73.248;2023-04-26T10:01:18;100939.56;;;23.56;32.03
63819;BME280;49970;54.976;73.248;2023-04-26T10:03:49;100934.38;;;23.46;32.14
63819;BME280;49970;54.976;73.248;2023-04-26T10:06:17;100931.88;;;23.36;32.49
63819;BME280;49970;54.976;73.248;2023-04-26T10:08:43;100936.28;;;23.38;32.85
63819;BME280;49970;54.976;73.248;2023-04-26T10:11:30;100947.25;;;23.36;32.13
63819;BME280;49970;54.976;73.248;2023-04-26T10:15:20;100934.97;;;23.33;32.30
63819;BME280;49970;54.976;73.248;2023-04-26T10:19:48;100927.81;;;23.41;32.61
63819;BME280;49970;54.976;73.248;2023-04-26T10:22:24;100939.28;;;23.43;31.77
63819;BME280;49970;54.976;73.248;2023-04-26T10:25:02;100926.63;;;23.43;32.33
63819;BME280;49970;54.976;73.248;2023-04-26T10:30:16;100940.13;;;23.43;31.62
63819;BME280;49970;54.976;73.248;2023-04-26T10:35:18;100945.25;;;23.38;31.94
63819;BME280;49970;54.976;73.248;2023-04-26T10:38:11;100933.94;;;23.34;32.00
63819;BME280;49970;54.976;73.248;2023-04-26T10:40:38;100930.88;;;23.38;31.75
63819;BME280;49970;54.976;73.248;2023-04-26T10:45:39;100938.63;;;23.41;31.41
63819;BME280;49970;54.976;73.248;2023-04-26T10:56:56;100937.66;;;23.33;31.64
63819;BME280;49970;54.976;73.248;2023-04-26T10:59:18;100926.84;;;23.33;31.52
63819;BME280;49970;54.976;73.248;2023-04-26T11:01:44;100933.94;;;23.34;31.45
63819;BME280;49970;54.976;73.248;2023-04-26T11:04:16;100939.34;;;23.34;31.69
63819;BME280;49970;54.976;73.248;2023-04-26T11:06:52;100937.28;;;23.36;31.05
63819;BME280;49970;54.976;73.248;2023-04-26T11:12:12;100936.16;;;23.31;30.34
63819;BME280;49970;54.976;73.248;2023-04-26T11:14:40;100928.22;;;23.29;30.95
63819;BME280;49970;54.976;73.248;2023-04-26T11:17:09;100939.88;;;23.30;31.03
63819;BME280;49970;54.976;73.248;2023-04-26T11:19:36;100940.22;;;23.27;30.57
63819;BME280;49970;54.976;73.248;2023-04-26T11:22:05;100939.72;;;23.23;31.05
63819;BME280;49970;54.976;73.248;2023-04-26T11:24:33;100936.91;;;23.17;31.28
63819;BME280;49970;54.976;73.248;2023-04-26T11:27:10;100936.56;;;23.11;31.43
63819;BME280;49970;54.976;73.248;2023-04-26T11:29:42;100935.25;;;23.07;31.15
63819;BME280;49970;54.976;73.248;2023-04-26T11:32:08;100939.78;;;23.07;31.73
63819;BME280;49970;54.976;73.248;2023-04-26T11:34:38;100938.81;;;23.08;31.68
63819;BME280;49970;54.976;73.248;2023-04-26T11:37:09;100933.41;;;23.08;31.81
63819;BME280;49970;54.976;73.248;2023-04-26T11:39:55;100942.50;;;23.07;32.00
63819;BME280;49970;54.976;73.248;2023-04-26T11:43:36;100937.63;;;23.02;31.17
63819;BME280;49970;54.976;73.248;2023-04-26T11:47:07;100937.13;;;22.99;31.14
63819;BME280;49970;54.976;73.248;2023-04-26T11:49:37;100932.09;;;22.96;31.29
63819;BME280;49970;54.976;73.248;2023-04-26T11:52:13;100932.94;;;22.96;31.73
63819;BME280;49970;54.976;73.248;2023-04-26T11:54:40;100937.50;;;22.96;30.79
63819;BME280;49970;54.976;73.248;2023-04-26T11:57:17;100925.34;;;22.92;31.18
63819;BME280;49970;54.976;73.248;2023-04-26T12:00:11;100928.19;;;22.90;30.92
63819;BME280;49970;54.976;73.248;2023-04-26T12:06:08;100926.00;;;22.85;31.11
63819;BME280;49970;54.976;73.248;2023-04-26T12:08:34;100928.03;;;22.83;31.47
63819;BME280;49970;54.976;73.248;2023-04-26T12:11:01;100931.78;;;22.82;31.51
63819;BME280;49970;54.976;73.248;2023-04-26T12:13:48;100927.72;;;22.78;31.94
63819;BME280;49970;54.976;73.248;2023-04-26T12:17:18;100931.09;;;22.72;31.84
63819;BME280;49970;54.976;73.248;2023-04-26T12:19:48;100929.44;;;22.71;32.00
63819;BME280;49970;54.976;73.248;2023-04-26T12:22:19;100932.47;;;22.68;32.09
63819;BME280;49970;54.976;73.248;2023-04-26T12:24:46;100936.72;;;22.62;31.98
63819;BME280;49970;54.976;73.248;2023-04-26T12:27:19;100928.28;;;22.57;31.41
63819;BME280;49970;54.976;73.248;2023-04-26T12:29:46;100927.59;;;22.55;31.73
63819;BME280;49970;54.976;73.248;2023-04-26T12:32:22;100940.59;;;22.52;32.12
63819;BME280;49970;54.976;73.248;2023-04-26T12:34:49;100934.53;;;22.50;31.80
63819;BME280;49970;54.976;73.248;2023-04-26T12:37:21;100936.56;;;22.48;32.01
63819;BME280;49970;54.976;73.248;2023-04-26T12:39:47;100930.66;;;22.44;31.97
63819;BME280;49970;54.976;73.248;2023-04-26T12:42:13;100932.00;;;22.40;32.02
63819;BME280;49970;54.976;73.248;2023-04-26T12:44:39;100926.78;;;22.38;31.81
63819;BME280;49970;54.976;73.248;2023-04-26T12:47:05;100930.50;;;22.37;32.39
63819;BME280;49970;54.976;73.248;2023-04-26T12:49:32;100928.84;;;22.36;32.01
63819;BME280;49970;54.976;73.248;2023-04-26T12:52:06;100933.53;;;22.34;32.42
63819;BME280;49970;54.976;73.248;2023-04-26T12:54:37;100932.03;;;22.32;32.31
63819;BME280;49970;54.976;73.248;2023-04-26T12:57:04;100928.66;;;22.30;32.55
63819;BME280;49970;54.976;73.248;2023-04-26T12:59:40;100927.13;;;22.27;32.79
63819;BME280;49970;54.976;73.248;2023-04-26T13:02:07;100925.63;;;22.25;32.77
63819;BME280;49970;54.976;73.248;2023-04-26T13:04:45;100927.00;;;22.21;32.86
63819;BME280;49970;54.976;73.248;2023-04-26T13:07:11;100930.84;;;22.18;32.72
63819;BME280;49970;54.976;73.248;2023-04-26T13:09:37;100924.63;;;22.18;33.16
63819;BME280;49970;54.976;73.248;2023-04-26T13:12:04;100928.16;;;22.18;33.19
63819;BME280;49970;54.976;73.248;2023-04-26T13:14:30;100931.88;;;22.17;33.19
63819;BME280;49970;54.976;73.248;2023-04-26T13:16:56;100930.34;;;22.15;33.45
63819;BME280;49970;54.976;73.248;2023-04-26T13:19:34;100928.66;;;22.13;33.02
63819;BME280;49970;54.976;73.248;2023-04-26T13:22:05;100930.00;;;22.09;33.31
63819;BME280;49970;54.976;73.248;2023-04-26T13:24:34;100925.94;;;22.05;33.11
63819;BME280;49970;54.976;73.248;2023-04-26T13:27:01;100925.94;;;22.05;33.29
63819;BME280;49970;54.976;73.248;2023-04-26T13:29:29;100934.22;;;22.04;33.71
63819;BME280;49970;54.976;73.248;2023-04-26T13:31:57;100918.03;;;21.96;33.53
63819;BME280;49970;54.976;73.248;2023-04-26T13:34:34;100920.72;;;21.96;33.66
63819;BME280;49970;54.976;73.248;2023-04-26T13:37:00;100924.59;;;21.93;33.81
63819;BME280;49970;54.976;73.248;2023-04-26T13:39:38;100925.78;;;21.91;34.20